createdAt,value
2023-03-29T00:00:14.409Z,-1.69
2023-03-29T00:03:18.310Z,-1.74
2023-03-29T00:06:09.755Z,-1.77
2023-03-29T00:09:01.634Z,-1.80
2023-03-29T00:12:00.466Z,-1.82
2023-03-29T00:14:50.945Z,-1.84
2023-03-29T00:17:41.519Z,-1.85
2023-03-29T00:20:31.894Z,-1.88
2023-03-29T00:23:22.888Z,-1.94
2023-03-29T00:26:13.329Z,-1.95
2023-03-29T00:29:03.936Z,-1.96
2023-03-29T00:31:55.955Z,-1.97
2023-03-29T00:34:50.731Z,-2.01
2023-03-29T00:37:42.273Z,-2.04
2023-03-29T00:40:32.639Z,-2.05
2023-03-29T00:43:23.438Z,-2.09
2023-03-29T00:46:15.332Z,-2.09
2023-03-29T00:49:08.218Z,-2.11
2023-03-29T00:51:58.657Z,-2.13
2023-03-29T00:54:50.628Z,-2.12
2023-03-29T00:57:46.680Z,-2.11
2023-03-29T01:00:39.780Z,-2.11
2023-03-29T01:03:33.047Z,-2.12
2023-03-29T01:06:26.046Z,-2.12
2023-03-29T01:09:17.386Z,-2.13
2023-03-29T01:12:12.273Z,-2.14
2023-03-29T01:15:08.050Z,-2.18
2023-03-29T01:17:50.906Z,-2.24
2023-03-29T01:20:49.043Z,-2.26
2023-03-29T01:23:59.077Z,-2.28
2023-03-29T01:26:53.218Z,-2.29
2023-03-29T01:29:45.550Z,-2.31
2023-03-29T01:32:40.007Z,-2.33
2023-03-29T01:35:36.952Z,-2.36
2023-03-29T01:38:29.178Z,-2.42
2023-03-29T01:41:04.987Z,-2.48
2023-03-29T01:43:50.547Z,-2.59
2023-03-29T01:46:45.672Z,-2.64
2023-03-29T01:49:40.086Z,-2.70
2023-03-29T01:52:34.685Z,-2.73
2023-03-29T01:55:28.298Z,-2.74
2023-03-29T01:58:20.032Z,-2.78
2023-03-29T02:01:11.363Z,-2.81
2023-03-29T02:04:04.147Z,-2.87
2023-03-29T02:06:55.751Z,-2.91
2023-03-29T02:09:37.757Z,-2.91
2023-03-29T02:12:28.318Z,-3.00
2023-03-29T02:15:19.891Z,-3.06
2023-03-29T02:18:10.439Z,-3.10
2023-03-29T02:21:01.181Z,-3.12
2023-03-29T02:23:54.688Z,-3.13
2023-03-29T02:26:45.275Z,-3.14
2023-03-29T02:29:35.697Z,-3.16
2023-03-29T02:32:29.145Z,-3.18
2023-03-29T02:35:22.755Z,-3.20
2023-03-29T02:38:14.677Z,-3.20
2023-03-29T02:41:05.631Z,-3.24
2023-03-29T02:43:57.088Z,-3.31
2023-03-29T02:46:48.908Z,-3.34
2023-03-29T02:49:39.813Z,-3.37
2023-03-29T02:52:34.116Z,-3.40
2023-03-29T02:55:25.842Z,-3.44
2023-03-29T02:58:12.767Z,-3.46
2023-03-29T03:01:03.763Z,-3.51
2023-03-29T03:03:54.471Z,-3.54
2023-03-29T03:06:29.106Z,-3.56
2023-03-29T03:09:19.740Z,-3.57
2023-03-29T03:12:10.200Z,-3.59
2023-03-29T03:15:00.833Z,-3.60
2023-03-29T03:17:51.208Z,-3.63
2023-03-29T03:20:46.964Z,-3.67
2023-03-29T03:23:37.485Z,-3.70
2023-03-29T03:26:29.895Z,-3.72
2023-03-29T03:29:20.571Z,-3.76
2023-03-29T03:32:12.346Z,-3.76
2023-03-29T03:35:02.954Z,-3.78
2023-03-29T03:37:53.414Z,-3.79
2023-03-29T03:40:43.985Z,-3.81
2023-03-29T03:43:34.612Z,-3.81
2023-03-29T03:46:25.566Z,-3.85
2023-03-29T03:49:16.647Z,-3.90
2023-03-29T03:52:07.072Z,-3.93
2023-03-29T03:54:57.554Z,-3.97
2023-03-29T03:57:48.007Z,-4.01
2023-03-29T04:00:38.395Z,-4.05
2023-03-29T04:03:29.223Z,-4.07
2023-03-29T04:06:19.876Z,-4.08
2023-03-29T04:09:10.340Z,-4.09
2023-03-29T04:12:01.494Z,-4.10
2023-03-29T04:14:36.907Z,-4.13
2023-03-29T04:17:27.399Z,-4.16
2023-03-29T04:20:18.795Z,-4.18
2023-03-29T04:23:09.201Z,-4.18
2023-03-29T04:25:59.644Z,-4.19
2023-03-29T04:28:50.068Z,-4.22
2023-03-29T04:31:40.511Z,-4.20
2023-03-29T04:34:31.023Z,-4.21
2023-03-29T04:37:22.394Z,-4.20
2023-03-29T04:40:14.987Z,-4.18
2023-03-29T04:43:05.437Z,-4.15
2023-03-29T04:45:43.306Z,-4.13
2023-03-29T04:48:33.683Z,-4.11
2023-03-29T04:51:24.770Z,-4.09
2023-03-29T04:54:15.306Z,-4.06
2023-03-29T04:57:05.872Z,-4.01
2023-03-29T04:59:56.352Z,-3.99
2023-03-29T05:02:47.412Z,-3.93
2023-03-29T05:05:23.134Z,-3.88
2023-03-29T05:08:13.597Z,-3.83
2023-03-29T05:10:47.541Z,-3.79
2023-03-29T05:13:38.386Z,-3.74
2023-03-29T05:16:30.187Z,-3.68
2023-03-29T05:19:21.831Z,-3.57
2023-03-29T05:22:12.213Z,-3.32
2023-03-29T05:25:02.732Z,-2.81
2023-03-29T05:27:53.233Z,-2.07
2023-03-29T05:30:43.756Z,-1.37
2023-03-29T05:33:35.472Z,-0.65
2023-03-29T05:36:26.094Z,0.10
2023-03-29T05:38:59.799Z,0.74
2023-03-29T05:41:50.230Z,1.57
2023-03-29T05:44:40.697Z,2.41
2023-03-29T05:47:31.729Z,3.12
2023-03-29T05:50:22.224Z,3.42
2023-03-29T05:53:11.304Z,3.53
2023-03-29T05:56:02.095Z,3.70
2023-03-29T05:58:55.165Z,3.73
2023-03-29T06:01:47.012Z,3.77
2023-03-29T06:04:37.645Z,3.81
2023-03-29T06:07:28.278Z,3.91
2023-03-29T06:10:20.212Z,3.91
2023-03-29T06:13:10.864Z,3.48
2023-03-29T06:16:01.423Z,3.09
2023-03-29T06:18:52.027Z,2.86
2023-03-29T06:21:22.322Z,2.65
2023-03-29T06:24:13.411Z,2.41
2023-03-29T06:27:03.854Z,2.28
2023-03-29T06:29:54.289Z,2.13
2023-03-29T06:32:44.766Z,1.95
2023-03-29T06:35:35.608Z,1.81
2023-03-29T06:38:26.686Z,1.76
2023-03-29T06:41:17.094Z,1.73
2023-03-29T06:43:58.303Z,1.64
2023-03-29T06:46:48.824Z,1.50
2023-03-29T06:49:39.505Z,1.41
2023-03-29T06:52:29.911Z,1.32
2023-03-29T06:55:21.695Z,1.35
2023-03-29T06:58:12.340Z,1.34
2023-03-29T07:01:03.858Z,1.36
2023-03-29T07:03:54.810Z,1.41
2023-03-29T07:06:48.459Z,1.47
2023-03-29T07:09:39.960Z,1.54
2023-03-29T07:12:21.021Z,1.64
2023-03-29T07:15:12.019Z,1.75
2023-03-29T07:17:51.318Z,1.82
2023-03-29T07:20:42.542Z,1.91
2023-03-29T07:23:33.006Z,2.03
2023-03-29T07:26:29.942Z,2.08
2023-03-29T07:29:20.944Z,2.18
2023-03-29T07:32:11.500Z,2.28
2023-03-29T07:35:01.979Z,2.35
2023-03-29T07:37:53.258Z,2.41
2023-03-29T07:40:43.681Z,2.52
2023-03-29T07:43:34.734Z,2.63
2023-03-29T07:46:25.973Z,2.75
2023-03-29T07:49:16.478Z,2.89
2023-03-29T07:52:07.656Z,3.09
2023-03-29T07:54:58.100Z,3.26
2023-03-29T07:57:49.672Z,3.43
2023-03-29T08:00:43.428Z,3.59
2023-03-29T08:03:33.955Z,3.80
2023-03-29T08:06:26.567Z,4.26
2023-03-29T08:09:17.290Z,5.59
2023-03-29T08:12:09.169Z,7.95
2023-03-29T08:14:59.654Z,10.40
2023-03-29T08:17:50.181Z,12.35
2023-03-29T08:20:40.575Z,13.71
2023-03-29T08:23:31.017Z,15.10
2023-03-29T08:26:21.451Z,16.16
2023-03-29T08:29:11.999Z,16.43
2023-03-29T08:32:03.687Z,17.50
2023-03-29T08:34:39.196Z,19.05
2023-03-29T08:37:29.614Z,20.55
2023-03-29T08:40:21.401Z,21.37
2023-03-29T08:43:33.943Z,22.03
2023-03-29T08:46:35.108Z,22.10
2023-03-29T08:49:27.050Z,22.51
2023-03-29T08:52:20.980Z,23.27
2023-03-29T08:55:17.748Z,23.54
2023-03-29T08:58:10.514Z,23.35
2023-03-29T09:01:02.377Z,23.69
2023-03-29T09:04:00.569Z,23.99
2023-03-29T09:06:51.142Z,24.28
2023-03-29T09:09:42.705Z,24.53
2023-03-29T09:12:38.359Z,25.12
2023-03-29T09:15:31.630Z,26.09
2023-03-29T09:18:26.552Z,27.27
2023-03-29T09:21:20.422Z,28.33
2023-03-29T09:24:24.664Z,29.24
2023-03-29T09:27:17.850Z,29.87
2023-03-29T09:30:14.674Z,30.58
2023-03-29T09:33:11.203Z,31.07
2023-03-29T09:36:04.137Z,31.60
2023-03-29T09:38:55.607Z,32.06
2023-03-29T09:41:48.776Z,32.65
2023-03-29T09:44:41.459Z,32.91
2023-03-29T09:47:35.159Z,32.45
2023-03-29T09:50:31.613Z,31.89
2023-03-29T09:53:22.785Z,31.38
2023-03-29T09:56:15.808Z,31.36
2023-03-29T09:59:06.369Z,31.73
2023-03-29T10:02:07.426Z,32.45
2023-03-29T10:05:00.630Z,33.12
2023-03-29T10:07:53.788Z,33.55
2023-03-29T10:10:44.167Z,33.34
2023-03-29T10:14:02.080Z,32.36
2023-03-29T10:16:57.513Z,32.62
2023-03-29T10:19:34.389Z,33.06
2023-03-29T10:22:26.308Z,32.89
2023-03-29T10:25:18.210Z,31.37
2023-03-29T10:27:55.123Z,31.52
2023-03-29T10:30:46.429Z,32.28
2023-03-29T10:33:37.219Z,33.07
2023-03-29T10:36:18.093Z,33.92
2023-03-29T10:39:09.009Z,34.76
2023-03-29T10:42:00.291Z,35.30
2023-03-29T10:44:35.628Z,35.58
2023-03-29T10:47:26.264Z,35.34
2023-03-29T10:50:17.267Z,34.95
2023-03-29T10:52:52.494Z,35.06
2023-03-29T10:55:46.319Z,34.46
2023-03-29T10:58:39.177Z,34.11
2023-03-29T11:01:31.731Z,34.18
2023-03-29T11:04:28.346Z,34.42
2023-03-29T11:07:23.866Z,34.80
2023-03-29T11:10:24.809Z,34.70
2023-03-29T11:13:21.101Z,34.33
2023-03-29T11:16:19.659Z,34.32
2023-03-29T11:19:27.142Z,34.53
2023-03-29T11:22:21.247Z,34.96
2023-03-29T11:25:10.049Z,34.69
2023-03-29T11:28:06.447Z,34.39
2023-03-29T11:31:01.240Z,34.71
2023-03-29T11:33:56.823Z,34.74
2023-03-29T11:36:52.713Z,34.69
2023-03-29T11:39:27.083Z,34.81
2023-03-29T11:42:19.640Z,34.92
2023-03-29T11:45:15.639Z,34.99
2023-03-29T11:48:08.649Z,35.12
2023-03-29T11:51:23.494Z,35.12
2023-03-29T11:54:19.032Z,34.89
2023-03-29T11:57:14.158Z,34.48
2023-03-29T12:00:07.971Z,34.19
2023-03-29T12:03:00.863Z,34.15
2023-03-29T12:05:53.141Z,34.25
2023-03-29T12:08:47.122Z,34.13
2023-03-29T12:11:39.620Z,34.10
2023-03-29T12:14:33.576Z,34.20
2023-03-29T12:17:28.600Z,33.96
2023-03-29T12:20:23.359Z,33.81
2023-03-29T12:23:15.738Z,33.58
2023-03-29T12:26:08.802Z,33.15
2023-03-29T12:29:08.536Z,32.82
2023-03-29T12:32:04.274Z,32.16
2023-03-29T12:35:04.609Z,31.35
2023-03-29T12:37:59.387Z,30.05
2023-03-29T12:40:54.950Z,29.19
2023-03-29T12:43:45.928Z,28.73
2023-03-29T12:46:36.578Z,28.10
2023-03-29T12:49:29.205Z,27.08
2023-03-29T12:52:24.377Z,25.79
2023-03-29T12:55:25.204Z,24.74
2023-03-29T12:58:25.896Z,23.87
2023-03-29T13:01:24.684Z,23.04
2023-03-29T13:04:20.059Z,22.36
2023-03-29T13:07:17.681Z,21.59
2023-03-29T13:09:58.135Z,20.98
2023-03-29T13:12:50.969Z,20.50
2023-03-29T13:15:41.509Z,20.09
2023-03-29T13:18:39.096Z,19.51
2023-03-29T13:21:33.807Z,18.60
2023-03-29T13:24:30.769Z,17.67
2023-03-29T13:27:28.991Z,17.34
2023-03-29T13:30:33.476Z,17.09
2023-03-29T13:33:33.483Z,17.04
2023-03-29T13:36:31.909Z,16.99
2023-03-29T13:39:25.440Z,16.56
2023-03-29T13:42:21.678Z,16.15
2023-03-29T13:45:14.629Z,16.10
2023-03-29T13:48:06.685Z,15.94
2023-03-29T13:50:58.703Z,15.84
2023-03-29T13:53:52.481Z,15.70
2023-03-29T13:56:49.201Z,15.48
2023-03-29T13:59:44.733Z,15.33
2023-03-29T14:02:38.909Z,15.23
2023-03-29T14:05:31.445Z,14.98
2023-03-29T14:08:24.490Z,14.50
2023-03-29T14:11:21.067Z,14.32
2023-03-29T14:14:12.683Z,14.14
2023-03-29T14:16:48.049Z,14.11
2023-03-29T14:19:39.049Z,14.06
2023-03-29T14:22:33.927Z,14.08
2023-03-29T14:25:25.565Z,14.00
2023-03-29T14:28:22.453Z,13.88
2023-03-29T14:30:56.410Z,13.57
2023-03-29T14:33:46.965Z,13.43
2023-03-29T14:36:23.236Z,13.43
2023-03-29T14:39:16.367Z,13.41
2023-03-29T14:42:04.035Z,13.38
2023-03-29T14:44:58.820Z,13.41
2023-03-29T14:47:50.329Z,13.24
2023-03-29T14:50:41.281Z,13.01
2023-03-29T14:53:34.325Z,12.95
2023-03-29T14:56:15.693Z,12.68
2023-03-29T14:59:06.107Z,12.56
2023-03-29T15:01:57.218Z,12.45
2023-03-29T15:04:58.782Z,12.39
2023-03-29T15:07:36.454Z,12.30
2023-03-29T15:10:18.389Z,12.24
2023-03-29T15:12:54.542Z,12.26
2023-03-29T15:15:45.406Z,12.30
2023-03-29T15:18:38.641Z,12.24
2023-03-29T15:21:31.483Z,12.19
2023-03-29T15:24:23.268Z,12.15
2023-03-29T15:27:14.800Z,12.10
2023-03-29T15:30:12.932Z,11.92
2023-03-29T15:33:19.849Z,11.85
2023-03-29T15:36:02.097Z,11.79
2023-03-29T15:38:45.386Z,11.66
2023-03-29T15:41:36.395Z,11.45
2023-03-29T15:44:30.181Z,11.33
2023-03-29T15:47:20.754Z,11.22
2023-03-29T15:50:11.879Z,11.12
2023-03-29T15:53:14.157Z,11.10
2023-03-29T15:56:07.680Z,11.03
2023-03-29T15:58:58.317Z,10.87
2023-03-29T16:01:48.866Z,10.75
2023-03-29T16:04:39.356Z,10.62
2023-03-29T16:07:30.223Z,10.54
2023-03-29T16:10:20.653Z,10.52
2023-03-29T16:13:13.289Z,10.48
2023-03-29T16:16:03.963Z,10.48
2023-03-29T16:18:54.592Z,10.47
2023-03-29T16:21:45.456Z,10.38
2023-03-29T16:24:36.720Z,10.27
2023-03-29T16:27:27.174Z,10.21
2023-03-29T16:30:17.979Z,10.16
2023-03-29T16:33:08.797Z,10.09
2023-03-29T16:35:59.647Z,10.00
2023-03-29T16:38:50.408Z,9.90
2023-03-29T16:41:40.992Z,9.80
2023-03-29T16:44:31.432Z,9.72
2023-03-29T16:47:21.819Z,9.66
2023-03-29T16:49:57.343Z,9.62
2023-03-29T16:52:48.898Z,9.53
2023-03-29T16:55:39.348Z,9.46
2023-03-29T16:58:29.841Z,9.40
2023-03-29T17:01:20.634Z,9.33
2023-03-29T17:04:11.499Z,9.27
2023-03-29T17:07:01.967Z,9.25
2023-03-29T17:09:52.820Z,9.19
2023-03-29T17:12:43.338Z,9.13
2023-03-29T17:15:33.849Z,9.07
2023-03-29T17:18:25.265Z,8.98
2023-03-29T17:21:15.806Z,8.93
2023-03-29T17:24:06.910Z,8.93
2023-03-29T17:26:57.561Z,8.93
2023-03-29T17:29:48.149Z,8.92
2023-03-29T17:32:40.045Z,8.88
2023-03-29T17:35:30.688Z,8.84
2023-03-29T17:38:21.728Z,8.80
2023-03-29T17:41:12.298Z,8.74
2023-03-29T17:44:02.804Z,8.71
2023-03-29T17:46:53.264Z,8.65
2023-03-29T17:49:43.858Z,8.61
2023-03-29T17:52:34.437Z,8.61
2023-03-29T17:55:24.990Z,8.56
2023-03-29T17:58:15.368Z,8.52
2023-03-29T18:01:09.300Z,8.47
2023-03-29T18:03:59.806Z,8.41
2023-03-29T18:06:50.490Z,8.36
2023-03-29T18:09:41.274Z,8.27
2023-03-29T18:12:31.706Z,8.21
2023-03-29T18:15:22.443Z,8.18
2023-03-29T18:18:12.905Z,8.14
2023-03-29T18:21:03.836Z,8.11
2023-03-29T18:23:56.892Z,8.05
2023-03-29T18:26:48.139Z,8.00
2023-03-29T18:29:34.190Z,7.97
2023-03-29T18:32:24.645Z,7.91
2023-03-29T18:37:36.234Z,7.90
2023-03-29T18:40:28.693Z,7.87
2023-03-29T18:43:20.682Z,7.83
2023-03-29T18:46:13.259Z,7.81
2023-03-29T18:48:46.240Z,7.79
2023-03-29T18:51:39.418Z,7.75
2023-03-29T18:54:20.795Z,7.70
2023-03-29T18:57:02.133Z,7.68
2023-03-29T18:59:54.218Z,7.63
2023-03-29T19:02:46.264Z,7.58
2023-03-29T19:05:40.991Z,7.52
2023-03-29T19:08:34.482Z,7.47
2023-03-29T19:11:28.912Z,7.41
2023-03-29T19:14:23.650Z,7.34
2023-03-29T19:17:16.012Z,7.28
2023-03-29T19:20:11.032Z,7.21
2023-03-29T19:23:03.821Z,7.18
2023-03-29T19:25:57.413Z,7.15
2023-03-29T19:28:49.461Z,7.11
2023-03-29T19:31:41.624Z,7.04
2023-03-29T19:34:33.796Z,7.00
2023-03-29T19:37:25.997Z,6.93
2023-03-29T19:40:18.092Z,6.87
2023-03-29T19:43:10.400Z,6.84
2023-03-29T19:46:10.849Z,6.79
2023-03-29T19:49:05.168Z,6.74
2023-03-29T19:51:58.180Z,6.69
2023-03-29T19:54:50.002Z,6.67
2023-03-29T19:57:42.495Z,6.61
2023-03-29T20:00:35.084Z,6.58
2023-03-29T20:03:22.784Z,6.53
2023-03-29T20:06:14.865Z,6.45
2023-03-29T20:09:07.634Z,6.38
2023-03-29T20:11:59.855Z,6.28
2023-03-29T20:14:51.827Z,6.22
2023-03-29T20:17:43.934Z,6.12
2023-03-29T20:20:35.974Z,6.07
2023-03-29T20:23:28.302Z,6.04
2023-03-29T20:26:20.246Z,6.01
2023-03-29T20:28:54.724Z,5.97
2023-03-29T20:31:47.851Z,5.95
2023-03-29T20:34:40.073Z,5.90
2023-03-29T20:37:33.688Z,5.88
2023-03-29T20:40:07.575Z,5.84
2023-03-29T20:42:55.925Z,5.80
2023-03-29T20:45:53.990Z,5.78
2023-03-29T20:48:53.798Z,5.79
2023-03-29T20:51:46.553Z,5.79
2023-03-29T20:54:39.011Z,5.76
2023-03-29T20:57:31.077Z,5.73
2023-03-29T21:00:24.953Z,5.66
2023-03-29T21:03:17.779Z,5.60
2023-03-29T21:06:15.056Z,5.64
2023-03-29T21:08:50.393Z,5.67
2023-03-29T21:11:22.911Z,5.70
2023-03-29T21:13:59.826Z,5.76
2023-03-29T21:16:43.679Z,5.78
2023-03-29T21:19:36.983Z,5.80
2023-03-29T21:22:29.369Z,5.80
2023-03-29T21:25:22.248Z,5.75
2023-03-29T21:28:14.295Z,5.75
2023-03-29T21:31:08.242Z,5.78
2023-03-29T21:34:00.659Z,5.81
2023-03-29T21:36:52.814Z,5.83
2023-03-29T21:39:45.022Z,5.87
2023-03-29T21:42:37.520Z,5.89
2023-03-29T21:45:14.752Z,5.93
2023-03-29T21:48:07.398Z,5.96
2023-03-29T21:50:59.697Z,5.99
2023-03-29T21:53:51.762Z,6.01
2023-03-29T21:56:45.444Z,6.02
2023-03-29T21:59:27.884Z,6.01
2023-03-29T22:02:16.242Z,5.99
2023-03-29T22:05:09.248Z,5.96
2023-03-29T22:08:01.420Z,5.94
2023-03-29T22:10:56.956Z,5.94
2023-03-29T22:13:49.134Z,5.94
2023-03-29T22:16:41.680Z,5.96
2023-03-29T22:19:34.134Z,5.95
2023-03-29T22:22:14.393Z,5.93
2023-03-29T22:25:07.566Z,5.91
2023-03-29T22:27:59.664Z,5.89
2023-03-29T22:30:51.765Z,5.88
2023-03-29T22:33:44.212Z,5.89
2023-03-29T22:36:23.026Z,5.86
2023-03-29T22:39:06.531Z,5.87
2023-03-29T22:41:58.568Z,5.89
2023-03-29T22:44:51.107Z,5.90
2023-03-29T22:47:43.198Z,5.92
2023-03-29T22:50:36.604Z,5.94
2023-03-29T22:53:29.022Z,5.93
2023-03-29T22:56:21.847Z,5.94
2023-03-29T22:59:14.011Z,5.98
2023-03-29T23:02:06.133Z,5.99
2023-03-29T23:04:58.208Z,5.96
2023-03-29T23:07:50.515Z,5.94
2023-03-29T23:10:44.817Z,5.92
2023-03-29T23:13:35.344Z,5.91
2023-03-29T23:16:27.542Z,5.91
2023-03-29T23:19:19.836Z,5.92
2023-03-29T23:22:11.830Z,5.96
2023-03-29T23:25:03.904Z,5.99
2023-03-29T23:27:56.590Z,6.00
2023-03-29T23:30:54.160Z,6.01
2023-03-29T23:33:46.711Z,6.01
2023-03-29T23:36:38.735Z,6.03
2023-03-29T23:39:30.906Z,6.06
2023-03-29T23:42:23.216Z,6.09
2023-03-29T23:45:18.173Z,6.12
2023-03-29T23:48:10.283Z,6.16
2023-03-29T23:51:03.006Z,6.20
2023-03-29T23:53:55.720Z,6.22
2023-03-29T23:56:47.958Z,6.23
2023-03-29T23:59:40.082Z,6.30
